ASN logo
ASN Wikibase Occurrence # 205379
Last updated: 16 August 2018
This information is added by users of ASN. Neither ASN nor the Flight Safety Foundation are responsible for the completeness or correctness of this information. If you feel this information is incomplete or incorrect, you can submit corrected information.

Date:30-JAN-2018
Time:ca 06:42 LT
Type:Silhouette image of generic B752 model; specific model in this crash may look slightly different
Boeing 757-23A (SF)
Owner/operator:FedEx
Registration: N919FD
C/n / msn: 24636/259
Fatalities:Fatalities: 0 / Occupants:
Other fatalities:0
Aircraft damage: None
Category:Incident
Location:W off Tel Aviv -   Israel
Phase: Approach
Nature:Cargo
Departure airport:Athens-Elefthérios Venizélos International Airport (ATH/LGAV)
Destination airport:Tel Aviv-Ben Gurion International Airport (TLV/LLBG)
Investigating agency: AIAI
Narrative:
A Boeing 757-200SF, registration N919FD operated by FedEx as flight FX5065, was involved in an airprox incident with a Beechcraft C-12V Huron while on approach to Tel Aviv-Ben Gurion Airport, Israel.
The Beechcraft C-12V Huron (a Super King Air for military use) was operated by the U.S. Army under flight number MFO692 to Sharm el Sheikh, Egypt. The flight crew received a departure clearance from the air traffic controller at Sde Dov: "clear to destination via KANER ONE BRAVO departure limited five thousand feet on the SID." MFO692 responded: "Roger is it cleared via the ADLOD departure?". The controller then recleared the flight for the requested departure procedure: "ADLOD ONE BRAVO departure limited five thousand feet on the SID."
The flight crew read back: "All right the ADLOD ONE BRAVO departure up to five thousand feet", to which the controller added: "limited five thousand feet on the SID". This was read back by the crew as: "Roger maintain five thousand feet."
MFO692 then departed from runway 21 at Sde Dov, climbing in a southerly direction. This took the flight toward the runway 12 approach path of Tel Aviv-Ben Gurion Airport.
At the same time, the FedEx Boeing 757 was on final approach to runway 12.
Both aircraft received TCAS Traffic Advisory (TA) warnings, followed by Resolution Advisory (RA) warnings. Both flight crews maintained visual separation and flight FX5065 aborted the approach and climbed on runway heading. They were then vectored for another approach to runway 12. A safe landing was carried out at 06:58 hours. The Beech Huron continued to its destination.
Minimum separation was 0,4 miles (740 m) horizontally and a little over 300 feet (90 m) vertically.

The investigation by AIAI Israel revealed that the flight crew of MFO692 misinterpreted the clearance, not knowing they were supposed to maintain separation from ILS runway 12 path of Ben Gurion Airport. Contributing was the lack of a proper pre-flight briefing on the specific airspace arrangements between Sde Dov and Ben Gurion Airport.

Additionally, AIAI Israel blamed media for misinterpreting flight track information from Flightradar24. Media mistook a controlled manoeuvre during initial approach for an evasive manoeuvre to avoid the Beech Huron.
The occurrence was initially classified as a Serious Incident, however, it was later reclassified as an Incident because the actual risk of a collision between the aircraft in this event was very low. Mainly because the crews acted on the TCAS and maintained visual contact with each other during the event.



Weather about the time of the incident (04:42Z):
LLBG 300550Z VRB03KT 9999 FEW035 11/07 Q1024 NOSIG
LLBG 300520Z 14004KT 9999 FEW035 10/07 Q1024 NOSIG
>> LLBG 300450Z VRB03KT 9999 SCT030 10/07 Q1024 NOSIG RMK SCT060
LLBG 300420Z VRB03KT 9999 SCT030 09/07 Q1024 NOSIG

Sources:

https://twitter.com/orheller
https://www.timesofisrael.com/within-5-seconds-of-disaster-2-planes-nearly-collide-over-tel-aviv/
https://www.ynetnews.com/articles/0,7340,L-5078795,00.html
https://flightaware.com/live/flight/MFO692/history/20180130/0442Z/LLSD/L%2028.05600%2034.36390
___________________________
https://www.flightradar24.com/data/flights/fx5065#10461d47

Accident investigation:
cover
  
Investigating agency: AIAI
Status: Investigation completed
Duration: 1 month
Download report: Final report


Images:



Revision history:

Date/timeContributorUpdates
30-Jan-2018 19:56 Simcatalog Added
30-Jan-2018 20:39 Iceman 29 Updated [Aircraft type, Cn, Source, Photo, ]
30-Jan-2018 20:41 Iceman 29 Updated [Total fatalities, Other fatalities, Location, Departure airport, Destination airport]
30-Jan-2018 22:21 Iceman 29 Updated [Source]
31-Jan-2018 08:33 Iceman 29 Updated [Time, Aircraft type, Source, Embed code, Narrative]
31-Jan-2018 12:32 harro Updated [Operator, Departure airport, Destination airport, Source, Embed code, Narrative]
31-Jan-2018 12:43 harro Updated [Time, Location, Source, Narrative]
31-Jan-2018 13:18 harro Updated [Narrative]
31-Jan-2018 13:32 harro Updated [Embed code, Photo, ]
07-Mar-2018 18:18 harro Updated [Narrative]
07-Mar-2018 18:21 harro Updated [Narrative]

Corrections or additions? ... Edit this accident description